sensor_id;sensor_type;location;lat;lon;timestamp;P1;durP1;ratioP1;P2;durP2;ratioP2
37777;SDS011;23615;51.506;7.678;2022-08-14T00:00:15;3.50;;;3.20;;
37777;SDS011;23615;51.506;7.678;2022-08-14T00:02:42;3.08;;;2.88;;
37777;SDS011;23615;51.506;7.678;2022-08-14T00:05:08;3.17;;;2.97;;
37777;SDS011;23615;51.506;7.678;2022-08-14T00:07:36;3.17;;;2.80;;
37777;SDS011;23615;51.506;7.678;2022-08-14T00:10:02;3.08;;;2.83;;
37777;SDS011;23615;51.506;7.678;2022-08-14T00:12:30;2.67;;;2.47;;
37777;SDS011;23615;51.506;7.678;2022-08-14T00:14:56;3.95;;;3.10;;
37777;SDS011;23615;51.506;7.678;2022-08-14T00:17:22;3.22;;;2.88;;
37777;SDS011;23615;51.506;7.678;2022-08-14T00:19:48;3.63;;;3.13;;
37777;SDS011;23615;51.506;7.678;2022-08-14T00:22:13;2.88;;;2.67;;
37777;SDS011;23615;51.506;7.678;2022-08-14T00:24:42;3.05;;;2.65;;
37777;SDS011;23615;51.506;7.678;2022-08-14T00:27:08;2.95;;;2.75;;
37777;SDS011;23615;51.506;7.678;2022-08-14T00:29:33;3.47;;;3.17;;
37777;SDS011;23615;51.506;7.678;2022-08-14T00:31:58;3.63;;;3.33;;
37777;SDS011;23615;51.506;7.678;2022-08-14T00:34:24;3.17;;;2.72;;
37777;SDS011;23615;51.506;7.678;2022-08-14T00:36:49;2.72;;;2.53;;
37777;SDS011;23615;51.506;7.678;2022-08-14T00:39:15;3.00;;;2.80;;
37777;SDS011;23615;51.506;7.678;2022-08-14T00:41:41;3.05;;;2.55;;
37777;SDS011;23615;51.506;7.678;2022-08-14T00:44:06;3.78;;;2.75;;
37777;SDS011;23615;51.506;7.678;2022-08-14T00:46:32;2.92;;;2.72;;
37777;SDS011;23615;51.506;7.678;2022-08-14T00:48:57;3.25;;;3.05;;
37777;SDS011;23615;51.506;7.678;2022-08-14T00:51:23;3.60;;;3.40;;
37777;SDS011;23615;51.506;7.678;2022-08-14T00:53:48;4.15;;;3.72;;
37777;SDS011;23615;51.506;7.678;2022-08-14T00:56:15;3.35;;;3.08;;
37777;SDS011;23615;51.506;7.678;2022-08-14T00:58:42;3.75;;;3.45;;
37777;SDS011;23615;51.506;7.678;2022-08-14T01:01:09;3.75;;;3.45;;
37777;SDS011;23615;51.506;7.678;2022-08-14T01:03:36;3.65;;;3.33;;
37777;SDS011;23615;51.506;7.678;2022-08-14T01:06:03;3.75;;;3.45;;
37777;SDS011;23615;51.506;7.678;2022-08-14T01:08:33;3.70;;;3.40;;
37777;SDS011;23615;51.506;7.678;2022-08-14T01:10:59;3.90;;;3.60;;
37777;SDS011;23615;51.506;7.678;2022-08-14T01:13:26;4.20;;;3.85;;
37777;SDS011;23615;51.506;7.678;2022-08-14T01:15:57;3.10;;;2.80;;
37777;SDS011;23615;51.506;7.678;2022-08-14T01:18:25;4.28;;;3.88;;
37777;SDS011;23615;51.506;7.678;2022-08-14T01:21:10;3.80;;;3.50;;
37777;SDS011;23615;51.506;7.678;2022-08-14T01:23:40;3.83;;;3.53;;
37777;SDS011;23615;51.506;7.678;2022-08-14T01:26:08;4.25;;;3.95;;
37777;SDS011;23615;51.506;7.678;2022-08-14T01:28:36;3.88;;;3.58;;
37777;SDS011;23615;51.506;7.678;2022-08-14T01:31:06;3.92;;;3.67;;
37777;SDS011;23615;51.506;7.678;2022-08-14T01:33:38;3.85;;;3.55;;
37777;SDS011;23615;51.506;7.678;2022-08-14T01:36:11;4.05;;;3.75;;
37777;SDS011;23615;51.506;7.678;2022-08-14T01:38:37;3.95;;;3.65;;
37777;SDS011;23615;51.506;7.678;2022-08-14T01:41:08;4.72;;;4.30;;
37777;SDS011;23615;51.506;7.678;2022-08-14T01:43:42;4.00;;;3.70;;
37777;SDS011;23615;51.506;7.678;2022-08-14T01:46:13;4.43;;;4.07;;
37777;SDS011;23615;51.506;7.678;2022-08-14T01:48:39;4.68;;;3.83;;
37777;SDS011;23615;51.506;7.678;2022-08-14T01:51:08;4.18;;;3.22;;
37777;SDS011;23615;51.506;7.678;2022-08-14T01:53:34;6.32;;;5.00;;
37777;SDS011;23615;51.506;7.678;2022-08-14T01:56:04;4.13;;;3.83;;
37777;SDS011;23615;51.506;7.678;2022-08-14T01:58:30;4.47;;;4.07;;
37777;SDS011;23615;51.506;7.678;2022-08-14T02:00:56;4.47;;;3.92;;
37777;SDS011;23615;51.506;7.678;2022-08-14T02:03:23;4.18;;;3.88;;
37777;SDS011;23615;51.506;7.678;2022-08-14T02:05:54;3.85;;;3.55;;
37777;SDS011;23615;51.506;7.678;2022-08-14T02:08:23;4.07;;;3.78;;
37777;SDS011;23615;51.506;7.678;2022-08-14T02:10:52;4.40;;;3.63;;
37777;SDS011;23615;51.506;7.678;2022-08-14T02:13:37;4.25;;;3.85;;
37777;SDS011;23615;51.506;7.678;2022-08-14T02:16:04;4.05;;;3.33;;
37777;SDS011;23615;51.506;7.678;2022-08-14T02:18:30;4.35;;;3.20;;
37777;SDS011;23615;51.506;7.678;2022-08-14T02:20:55;4.05;;;3.75;;
37777;SDS011;23615;51.506;7.678;2022-08-14T02:23:22;4.03;;;3.70;;
37777;SDS011;23615;51.506;7.678;2022-08-14T02:25:47;4.20;;;3.90;;
37777;SDS011;23615;51.506;7.678;2022-08-14T02:28:13;3.75;;;3.47;;
37777;SDS011;23615;51.506;7.678;2022-08-14T02:30:38;3.75;;;3.45;;
37777;SDS011;23615;51.506;7.678;2022-08-14T02:33:05;3.53;;;3.22;;
37777;SDS011;23615;51.506;7.678;2022-08-14T02:35:31;3.70;;;3.40;;
37777;SDS011;23615;51.506;7.678;2022-08-14T02:37:57;4.22;;;3.83;;
37777;SDS011;23615;51.506;7.678;2022-08-14T02:40:22;4.07;;;3.78;;
37777;SDS011;23615;51.506;7.678;2022-08-14T02:42:47;5.43;;;4.13;;
37777;SDS011;23615;51.506;7.678;2022-08-14T02:45:12;4.05;;;3.70;;
37777;SDS011;23615;51.506;7.678;2022-08-14T02:47:38;3.90;;;3.60;;
37777;SDS011;23615;51.506;7.678;2022-08-14T02:50:04;3.95;;;3.65;;
37777;SDS011;23615;51.506;7.678;2022-08-14T02:52:29;4.35;;;3.95;;
37777;SDS011;23615;51.506;7.678;2022-08-14T02:54:55;4.18;;;3.85;;
37777;SDS011;23615;51.506;7.678;2022-08-14T02:57:21;3.80;;;3.35;;
37777;SDS011;23615;51.506;7.678;2022-08-14T02:59:47;4.35;;;3.95;;
37777;SDS011;23615;51.506;7.678;2022-08-14T03:02:14;4.07;;;3.78;;
37777;SDS011;23615;51.506;7.678;2022-08-14T03:04:40;4.45;;;4.05;;
37777;SDS011;23615;51.506;7.678;2022-08-14T03:07:06;3.70;;;3.40;;
37777;SDS011;23615;51.506;7.678;2022-08-14T03:09:34;4.40;;;4.00;;
37777;SDS011;23615;51.506;7.678;2022-08-14T03:12:00;5.72;;;5.18;;
37777;SDS011;23615;51.506;7.678;2022-08-14T03:14:28;4.65;;;4.20;;
37777;SDS011;23615;51.506;7.678;2022-08-14T03:16:54;4.55;;;4.15;;
37777;SDS011;23615;51.506;7.678;2022-08-14T03:19:19;4.75;;;4.35;;
37777;SDS011;23615;51.506;7.678;2022-08-14T03:21:45;4.57;;;4.18;;
37777;SDS011;23615;51.506;7.678;2022-08-14T03:24:10;5.10;;;4.70;;
37777;SDS011;23615;51.506;7.678;2022-08-14T03:26:36;4.85;;;4.45;;
37777;SDS011;23615;51.506;7.678;2022-08-14T03:29:06;4.57;;;4.18;;
37777;SDS011;23615;51.506;7.678;2022-08-14T03:31:32;4.50;;;4.10;;
37777;SDS011;23615;51.506;7.678;2022-08-14T03:33:57;4.93;;;4.53;;
37777;SDS011;23615;51.506;7.678;2022-08-14T03:36:23;4.72;;;4.20;;
37777;SDS011;23615;51.506;7.678;2022-08-14T03:38:50;4.60;;;4.20;;
37777;SDS011;23615;51.506;7.678;2022-08-14T03:43:43;4.70;;;4.27;;
37777;SDS011;23615;51.506;7.678;2022-08-14T03:46:09;4.90;;;4.38;;
37777;SDS011;23615;51.506;7.678;2022-08-14T03:48:37;5.22;;;4.68;;
37777;SDS011;23615;51.506;7.678;2022-08-14T03:51:04;4.97;;;4.57;;
37777;SDS011;23615;51.506;7.678;2022-08-14T03:53:32;4.50;;;4.10;;
37777;SDS011;23615;51.506;7.678;2022-08-14T03:55:59;4.70;;;4.15;;
37777;SDS011;23615;51.506;7.678;2022-08-14T03:58:25;5.20;;;4.70;;
37777;SDS011;23615;51.506;7.678;2022-08-14T04:00:50;6.97;;;4.95;;
37777;SDS011;23615;51.506;7.678;2022-08-14T04:03:15;5.22;;;4.80;;
37777;SDS011;23615;51.506;7.678;2022-08-14T04:05:41;5.80;;;5.30;;
37777;SDS011;23615;51.506;7.678;2022-08-14T04:08:07;4.05;;;3.72;;
37777;SDS011;23615;51.506;7.678;2022-08-14T04:10:33;4.18;;;3.83;;
37777;SDS011;23615;51.506;7.678;2022-08-14T04:12:59;4.25;;;3.85;;
37777;SDS011;23615;51.506;7.678;2022-08-14T04:15:26;5.03;;;4.63;;
37777;SDS011;23615;51.506;7.678;2022-08-14T04:17:52;4.78;;;4.38;;
37777;SDS011;23615;51.506;7.678;2022-08-14T04:20:18;4.78;;;4.30;;
37777;SDS011;23615;51.506;7.678;2022-08-14T04:22:44;5.70;;;5.13;;
37777;SDS011;23615;51.506;7.678;2022-08-14T04:25:10;5.05;;;4.55;;
37777;SDS011;23615;51.506;7.678;2022-08-14T04:27:35;5.20;;;4.70;;
37777;SDS011;23615;51.506;7.678;2022-08-14T04:30:02;5.18;;;4.75;;
37777;SDS011;23615;51.506;7.678;2022-08-14T04:32:29;4.57;;;4.18;;
37777;SDS011;23615;51.506;7.678;2022-08-14T04:34:56;5.10;;;4.70;;
37777;SDS011;23615;51.506;7.678;2022-08-14T04:37:22;5.07;;;4.57;;
37777;SDS011;23615;51.506;7.678;2022-08-14T04:40:07;6.00;;;5.10;;
37777;SDS011;23615;51.506;7.678;2022-08-14T04:42:52;5.07;;;4.57;;
37777;SDS011;23615;51.506;7.678;2022-08-14T04:45:36;4.85;;;4.43;;
37777;SDS011;23615;51.506;7.678;2022-08-14T04:48:05;4.88;;;4.38;;
37777;SDS011;23615;51.506;7.678;2022-08-14T04:50:50;5.40;;;4.75;;
37777;SDS011;23615;51.506;7.678;2022-08-14T04:53:17;4.25;;;3.95;;
37777;SDS011;23615;51.506;7.678;2022-08-14T04:55:45;4.35;;;4.05;;
37777;SDS011;23615;51.506;7.678;2022-08-14T04:58:16;4.80;;;4.40;;
37777;SDS011;23615;51.506;7.678;2022-08-14T05:00:43;6.00;;;4.40;;
37777;SDS011;23615;51.506;7.678;2022-08-14T05:03:09;4.50;;;4.10;;
37777;SDS011;23615;51.506;7.678;2022-08-14T05:05:35;4.90;;;4.50;;
37777;SDS011;23615;51.506;7.678;2022-08-14T05:08:06;4.78;;;4.38;;
37777;SDS011;23615;51.506;7.678;2022-08-14T05:10:36;4.18;;;3.83;;
37777;SDS011;23615;51.506;7.678;2022-08-14T05:13:06;5.35;;;4.85;;
37777;SDS011;23615;51.506;7.678;2022-08-14T05:15:32;6.20;;;5.30;;
37777;SDS011;23615;51.506;7.678;2022-08-14T05:18:01;4.90;;;4.47;;
37777;SDS011;23615;51.506;7.678;2022-08-14T05:20:27;5.28;;;4.88;;
37777;SDS011;23615;51.506;7.678;2022-08-14T05:22:52;5.38;;;4.88;;
37777;SDS011;23615;51.506;7.678;2022-08-14T05:25:17;6.72;;;5.68;;
37777;SDS011;23615;51.506;7.678;2022-08-14T05:27:43;5.88;;;5.30;;
37777;SDS011;23615;51.506;7.678;2022-08-14T05:30:09;6.15;;;5.55;;
37777;SDS011;23615;51.506;7.678;2022-08-14T05:32:35;5.97;;;5.30;;
37777;SDS011;23615;51.506;7.678;2022-08-14T05:35:00;5.35;;;4.85;;
37777;SDS011;23615;51.506;7.678;2022-08-14T05:37:26;5.80;;;5.28;;
37777;SDS011;23615;51.506;7.678;2022-08-14T05:39:53;5.72;;;5.20;;
37777;SDS011;23615;51.506;7.678;2022-08-14T05:42:18;5.45;;;4.88;;
37777;SDS011;23615;51.506;7.678;2022-08-14T05:44:44;6.47;;;5.90;;
37777;SDS011;23615;51.506;7.678;2022-08-14T05:47:09;6.82;;;6.22;;
37777;SDS011;23615;51.506;7.678;2022-08-14T05:49:34;6.22;;;5.50;;
37777;SDS011;23615;51.506;7.678;2022-08-14T05:52:00;5.88;;;5.38;;
37777;SDS011;23615;51.506;7.678;2022-08-14T05:54:26;6.97;;;6.38;;
37777;SDS011;23615;51.506;7.678;2022-08-14T05:56:51;6.05;;;5.55;;
37777;SDS011;23615;51.506;7.678;2022-08-14T05:59:16;6.78;;;6.07;;
37777;SDS011;23615;51.506;7.678;2022-08-14T06:01:41;6.15;;;5.55;;
37777;SDS011;23615;51.506;7.678;2022-08-14T06:04:07;6.60;;;6.00;;
37777;SDS011;23615;51.506;7.678;2022-08-14T06:06:32;6.00;;;5.47;;
37777;SDS011;23615;51.506;7.678;2022-08-14T06:08:57;6.32;;;5.63;;
37777;SDS011;23615;51.506;7.678;2022-08-14T06:11:22;6.25;;;5.65;;
37777;SDS011;23615;51.506;7.678;2022-08-14T06:13:48;6.78;;;5.88;;
37777;SDS011;23615;51.506;7.678;2022-08-14T06:16:14;5.78;;;5.28;;
37777;SDS011;23615;51.506;7.678;2022-08-14T06:18:41;6.35;;;5.85;;
37777;SDS011;23615;51.506;7.678;2022-08-14T06:21:06;6.72;;;6.13;;
37777;SDS011;23615;51.506;7.678;2022-08-14T06:23:32;6.38;;;5.78;;
37777;SDS011;23615;51.506;7.678;2022-08-14T06:25:57;5.88;;;5.35;;
37777;SDS011;23615;51.506;7.678;2022-08-14T06:28:23;6.43;;;5.85;;
37777;SDS011;23615;51.506;7.678;2022-08-14T06:30:50;6.85;;;5.60;;
37777;SDS011;23615;51.506;7.678;2022-08-14T06:33:16;6.72;;;6.13;;
37777;SDS011;23615;51.506;7.678;2022-08-14T06:35:42;7.43;;;5.53;;
37777;SDS011;23615;51.506;7.678;2022-08-14T06:38:12;6.30;;;5.70;;
37777;SDS011;23615;51.506;7.678;2022-08-14T06:40:39;5.47;;;4.97;;
37777;SDS011;23615;51.506;7.678;2022-08-14T06:43:05;6.50;;;5.90;;
37777;SDS011;23615;51.506;7.678;2022-08-14T06:45:35;6.47;;;5.78;;
37777;SDS011;23615;51.506;7.678;2022-08-14T06:48:03;5.88;;;5.38;;
37777;SDS011;23615;51.506;7.678;2022-08-14T06:50:29;6.53;;;5.93;;
37777;SDS011;23615;51.506;7.678;2022-08-14T06:52:56;5.28;;;4.88;;
37777;SDS011;23615;51.506;7.678;2022-08-14T06:55:22;5.75;;;5.25;;
37777;SDS011;23615;51.506;7.678;2022-08-14T06:57:48;6.22;;;5.65;;
37777;SDS011;23615;51.506;7.678;2022-08-14T07:00:22;6.55;;;5.88;;
37777;SDS011;23615;51.506;7.678;2022-08-14T07:02:49;6.78;;;6.03;;
37777;SDS011;23615;51.506;7.678;2022-08-14T07:05:34;6.63;;;6.03;;
37777;SDS011;23615;51.506;7.678;2022-08-14T07:08:10;6.18;;;5.65;;
37777;SDS011;23615;51.506;7.678;2022-08-14T07:10:39;5.40;;;4.90;;
37777;SDS011;23615;51.506;7.678;2022-08-14T07:13:05;6.22;;;5.63;;
37777;SDS011;23615;51.506;7.678;2022-08-14T07:15:31;6.20;;;5.10;;
37777;SDS011;23615;51.506;7.678;2022-08-14T07:17:57;5.38;;;4.88;;
37777;SDS011;23615;51.506;7.678;2022-08-14T07:20:22;5.75;;;5.35;;
37777;SDS011;23615;51.506;7.678;2022-08-14T07:22:47;6.00;;;5.50;;
37777;SDS011;23615;51.506;7.678;2022-08-14T07:25:14;7.20;;;6.55;;
37777;SDS011;23615;51.506;7.678;2022-08-14T07:27:39;8.88;;;6.03;;
37777;SDS011;23615;51.506;7.678;2022-08-14T07:30:06;5.70;;;5.20;;
37777;SDS011;23615;51.506;7.678;2022-08-14T07:32:31;6.05;;;5.55;;
37777;SDS011;23615;51.506;7.678;2022-08-14T07:34:57;5.90;;;5.40;;
37777;SDS011;23615;51.506;7.678;2022-08-14T07:37:22;6.13;;;5.45;;
37777;SDS011;23615;51.506;7.678;2022-08-14T07:39:47;5.85;;;5.30;;
37777;SDS011;23615;51.506;7.678;2022-08-14T07:42:13;5.90;;;5.40;;
37777;SDS011;23615;51.506;7.678;2022-08-14T07:44:39;5.55;;;5.03;;
37777;SDS011;23615;51.506;7.678;2022-08-14T07:47:04;5.93;;;5.43;;
37777;SDS011;23615;51.506;7.678;2022-08-14T07:49:30;5.47;;;4.97;;
37777;SDS011;23615;51.506;7.678;2022-08-14T07:51:58;5.28;;;4.72;;
37777;SDS011;23615;51.506;7.678;2022-08-14T07:54:24;5.55;;;5.03;;
37777;SDS011;23615;51.506;7.678;2022-08-14T07:56:49;5.22;;;4.72;;
37777;SDS011;23615;51.506;7.678;2022-08-14T07:59:15;5.13;;;4.72;;
37777;SDS011;23615;51.506;7.678;2022-08-14T08:01:41;5.28;;;4.68;;
37777;SDS011;23615;51.506;7.678;2022-08-14T08:04:07;6.13;;;5.57;;
37777;SDS011;23615;51.506;7.678;2022-08-14T08:06:34;6.47;;;5.82;;
37777;SDS011;23615;51.506;7.678;2022-08-14T08:08:59;5.80;;;5.30;;
37777;SDS011;23615;51.506;7.678;2022-08-14T08:11:26;6.53;;;5.72;;
37777;SDS011;23615;51.506;7.678;2022-08-14T08:13:56;6.50;;;5.80;;
37777;SDS011;23615;51.506;7.678;2022-08-14T08:16:24;5.43;;;4.95;;
37777;SDS011;23615;51.506;7.678;2022-08-14T08:18:52;6.80;;;5.43;;
37777;SDS011;23615;51.506;7.678;2022-08-14T08:21:17;5.95;;;5.45;;
37777;SDS011;23615;51.506;7.678;2022-08-14T08:23:42;6.10;;;5.60;;
37777;SDS011;23615;51.506;7.678;2022-08-14T08:26:08;6.40;;;5.72;;
37777;SDS011;23615;51.506;7.678;2022-08-14T08:28:34;5.85;;;5.25;;
37777;SDS011;23615;51.506;7.678;2022-08-14T08:31:01;5.50;;;5.00;;
37777;SDS011;23615;51.506;7.678;2022-08-14T08:33:30;5.00;;;4.60;;
37777;SDS011;23615;51.506;7.678;2022-08-14T08:35:57;7.70;;;5.93;;
37777;SDS011;23615;51.506;7.678;2022-08-14T08:38:29;6.53;;;5.93;;
37777;SDS011;23615;51.506;7.678;2022-08-14T08:40:56;5.57;;;5.05;;
37777;SDS011;23615;51.506;7.678;2022-08-14T08:43:23;5.13;;;4.13;;
37777;SDS011;23615;51.506;7.678;2022-08-14T08:45:56;6.57;;;5.10;;
37777;SDS011;23615;51.506;7.678;2022-08-14T08:48:24;5.82;;;5.32;;
37777;SDS011;23615;51.506;7.678;2022-08-14T08:50:53;4.95;;;4.55;;
37777;SDS011;23615;51.506;7.678;2022-08-14T08:53:20;6.03;;;5.25;;
37777;SDS011;23615;51.506;7.678;2022-08-14T08:55:45;4.65;;;4.32;;
37777;SDS011;23615;51.506;7.678;2022-08-14T08:58:12;6.47;;;5.22;;
37777;SDS011;23615;51.506;7.678;2022-08-14T09:00:40;4.97;;;4.57;;
37777;SDS011;23615;51.506;7.678;2022-08-14T09:03:07;5.82;;;5.32;;
37777;SDS011;23615;51.506;7.678;2022-08-14T09:05:35;5.65;;;5.22;;
37777;SDS011;23615;51.506;7.678;2022-08-14T09:08:11;6.03;;;5.40;;
37777;SDS011;23615;51.506;7.678;2022-08-14T09:10:41;5.63;;;5.13;;
37777;SDS011;23615;51.506;7.678;2022-08-14T09:13:08;5.57;;;5.18;;
37777;SDS011;23615;51.506;7.678;2022-08-14T09:15:37;7.10;;;5.75;;
37777;SDS011;23615;51.506;7.678;2022-08-14T09:18:04;5.40;;;4.97;;
37777;SDS011;23615;51.506;7.678;2022-08-14T09:20:30;5.80;;;5.20;;
37777;SDS011;23615;51.506;7.678;2022-08-14T09:22:56;5.60;;;5.07;;
37777;SDS011;23615;51.506;7.678;2022-08-14T09:25:23;7.28;;;5.82;;
37777;SDS011;23615;51.506;7.678;2022-08-14T09:27:48;5.88;;;5.40;;
37777;SDS011;23615;51.506;7.678;2022-08-14T09:30:14;5.53;;;5.13;;
37777;SDS011;23615;51.506;7.678;2022-08-14T09:38:10;5.75;;;5.13;;
37777;SDS011;23615;51.506;7.678;2022-08-14T09:41:02;6.03;;;5.43;;
37777;SDS011;23615;51.506;7.678;2022-08-14T09:43:32;5.90;;;5.40;;
37777;SDS011;23615;51.506;7.678;2022-08-14T09:46:07;5.65;;;5.25;;
37777;SDS011;23615;51.506;7.678;2022-08-14T09:48:32;5.28;;;4.78;;
37777;SDS011;23615;51.506;7.678;2022-08-14T09:50:58;7.45;;;6.05;;
37777;SDS011;23615;51.506;7.678;2022-08-14T09:56:06;5.38;;;4.90;;
37777;SDS011;23615;51.506;7.678;2022-08-14T09:58:42;5.38;;;4.93;;
37777;SDS011;23615;51.506;7.678;2022-08-14T10:01:11;5.15;;;4.65;;
37777;SDS011;23615;51.506;7.678;2022-08-14T10:03:48;5.10;;;4.70;;
37777;SDS011;23615;51.506;7.678;2022-08-14T10:06:19;5.05;;;4.63;;
37777;SDS011;23615;51.506;7.678;2022-08-14T10:08:50;6.57;;;4.70;;
37777;SDS011;23615;51.506;7.678;2022-08-14T10:11:32;4.95;;;4.55;;
37777;SDS011;23615;51.506;7.678;2022-08-14T10:14:16;4.72;;;4.32;;
37777;SDS011;23615;51.506;7.678;2022-08-14T10:16:45;5.65;;;4.95;;
37777;SDS011;23615;51.506;7.678;2022-08-14T10:19:13;5.43;;;4.93;;
37777;SDS011;23615;51.506;7.678;2022-08-14T10:21:41;4.38;;;4.07;;
37777;SDS011;23615;51.506;7.678;2022-08-14T10:24:09;4.68;;;4.32;;
37777;SDS011;23615;51.506;7.678;2022-08-14T10:26:34;4.78;;;4.40;;
37777;SDS011;23615;51.506;7.678;2022-08-14T10:29:04;4.95;;;4.55;;
37777;SDS011;23615;51.506;7.678;2022-08-14T10:31:31;4.28;;;3.92;;
37777;SDS011;23615;51.506;7.678;2022-08-14T10:36:41;5.35;;;4.68;;
37777;SDS011;23615;51.506;7.678;2022-08-14T10:39:15;5.05;;;4.55;;
37777;SDS011;23615;51.506;7.678;2022-08-14T10:41:45;4.63;;;4.22;;
37777;SDS011;23615;51.506;7.678;2022-08-14T10:44:15;4.78;;;4.38;;
37777;SDS011;23615;51.506;7.678;2022-08-14T10:46:44;5.25;;;4.85;;
37777;SDS011;23615;51.506;7.678;2022-08-14T10:49:28;5.18;;;4.68;;
37777;SDS011;23615;51.506;7.678;2022-08-14T10:52:06;5.03;;;4.63;;
37777;SDS011;23615;51.506;7.678;2022-08-14T10:54:43;4.93;;;4.43;;
37777;SDS011;23615;51.506;7.678;2022-08-14T10:57:10;4.45;;;4.05;;
37777;SDS011;23615;51.506;7.678;2022-08-14T10:59:51;4.35;;;3.95;;
37777;SDS011;23615;51.506;7.678;2022-08-14T11:05:04;4.32;;;3.92;;
37777;SDS011;23615;51.506;7.678;2022-08-14T11:10:19;6.65;;;4.60;;
37777;SDS011;23615;51.506;7.678;2022-08-14T11:12:47;4.90;;;4.40;;
37777;SDS011;23615;51.506;7.678;2022-08-14T11:15:20;4.63;;;4.22;;
37777;SDS011;23615;51.506;7.678;2022-08-14T11:17:48;4.47;;;4.15;;
37777;SDS011;23615;51.506;7.678;2022-08-14T11:20:16;5.47;;;4.10;;
37777;SDS011;23615;51.506;7.678;2022-08-14T11:22:43;4.75;;;4.45;;
37777;SDS011;23615;51.506;7.678;2022-08-14T11:25:13;4.50;;;4.10;;
37777;SDS011;23615;51.506;7.678;2022-08-14T11:27:41;4.93;;;4.50;;
37777;SDS011;23615;51.506;7.678;2022-08-14T11:30:15;4.63;;;4.32;;
37777;SDS011;23615;51.506;7.678;2022-08-14T11:32:44;4.90;;;4.30;;
37777;SDS011;23615;51.506;7.678;2022-08-14T11:35:15;4.57;;;4.18;;
37777;SDS011;23615;51.506;7.678;2022-08-14T11:37:53;4.65;;;4.25;;
37777;SDS011;23615;51.506;7.678;2022-08-14T11:40:27;4.88;;;4.40;;
37777;SDS011;23615;51.506;7.678;2022-08-14T11:42:55;5.10;;;4.68;;
37777;SDS011;23615;51.506;7.678;2022-08-14T11:45:22;3.83;;;3.63;;
37777;SDS011;23615;51.506;7.678;2022-08-14T11:47:49;4.60;;;3.90;;
37777;SDS011;23615;51.506;7.678;2022-08-14T11:50:17;3.80;;;3.50;;
37777;SDS011;23615;51.506;7.678;2022-08-14T11:52:48;3.80;;;3.55;;
37777;SDS011;23615;51.506;7.678;2022-08-14T11:55:17;3.65;;;3.35;;
37777;SDS011;23615;51.506;7.678;2022-08-14T11:57:43;4.00;;;3.60;;
37777;SDS011;23615;51.506;7.678;2022-08-14T12:00:13;4.55;;;4.18;;
37777;SDS011;23615;51.506;7.678;2022-08-14T12:02:50;3.83;;;3.53;;
37777;SDS011;23615;51.506;7.678;2022-08-14T12:05:27;4.18;;;3.80;;
37777;SDS011;23615;51.506;7.678;2022-08-14T12:08:03;3.70;;;3.40;;
37777;SDS011;23615;51.506;7.678;2022-08-14T12:10:33;3.53;;;3.30;;
37777;SDS011;23615;51.506;7.678;2022-08-14T12:13:16;4.03;;;3.67;;
37777;SDS011;23615;51.506;7.678;2022-08-14T12:15:43;4.05;;;3.75;;
37777;SDS011;23615;51.506;7.678;2022-08-14T12:18:10;3.72;;;3.42;;
37777;SDS011;23615;51.506;7.678;2022-08-14T12:20:37;3.20;;;3.00;;
37777;SDS011;23615;51.506;7.678;2022-08-14T12:23:06;3.10;;;2.90;;
37777;SDS011;23615;51.506;7.678;2022-08-14T12:25:43;3.65;;;3.35;;
37777;SDS011;23615;51.506;7.678;2022-08-14T12:28:11;3.78;;;3.47;;
37777;SDS011;23615;51.506;7.678;2022-08-14T12:30:38;3.80;;;3.47;;
37777;SDS011;23615;51.506;7.678;2022-08-14T12:33:17;3.33;;;2.95;;
37777;SDS011;23615;51.506;7.678;2022-08-14T12:35:46;3.42;;;3.20;;
37777;SDS011;23615;51.506;7.678;2022-08-14T12:38:14;3.53;;;3.22;;
37777;SDS011;23615;51.506;7.678;2022-08-14T12:40:47;3.58;;;3.38;;
37777;SDS011;23615;51.506;7.678;2022-08-14T12:43:15;3.30;;;3.08;;
37777;SDS011;23615;51.506;7.678;2022-08-14T12:45:47;2.90;;;2.70;;
37777;SDS011;23615;51.506;7.678;2022-08-14T12:48:14;3.33;;;3.13;;
37777;SDS011;23615;51.506;7.678;2022-08-14T12:50:41;3.75;;;3.35;;
37777;SDS011;23615;51.506;7.678;2022-08-14T12:53:08;3.47;;;3.22;;
37777;SDS011;23615;51.506;7.678;2022-08-14T12:55:34;3.35;;;3.05;;
37777;SDS011;23615;51.506;7.678;2022-08-14T12:58:00;4.60;;;2.78;;
37777;SDS011;23615;51.506;7.678;2022-08-14T13:00:29;2.72;;;2.33;;
37777;SDS011;23615;51.506;7.678;2022-08-14T13:02:56;2.83;;;2.50;;
37777;SDS011;23615;51.506;7.678;2022-08-14T13:05:25;3.08;;;2.78;;
37777;SDS011;23615;51.506;7.678;2022-08-14T13:07:53;3.72;;;3.00;;
37777;SDS011;23615;51.506;7.678;2022-08-14T13:10:21;2.85;;;2.65;;
37777;SDS011;23615;51.506;7.678;2022-08-14T13:12:47;3.53;;;3.30;;
37777;SDS011;23615;51.506;7.678;2022-08-14T13:15:14;3.53;;;3.20;;
37777;SDS011;23615;51.506;7.678;2022-08-14T13:17:42;2.85;;;2.65;;
37777;SDS011;23615;51.506;7.678;2022-08-14T13:20:18;6.80;;;3.67;;
37777;SDS011;23615;51.506;7.678;2022-08-14T13:22:45;4.20;;;3.05;;
37777;SDS011;23615;51.506;7.678;2022-08-14T13:25:15;3.15;;;2.85;;
37777;SDS011;23615;51.506;7.678;2022-08-14T13:27:46;2.80;;;2.60;;
37777;SDS011;23615;51.506;7.678;2022-08-14T13:30:13;2.97;;;2.78;;
37777;SDS011;23615;51.506;7.678;2022-08-14T13:32:39;3.25;;;2.83;;
37777;SDS011;23615;51.506;7.678;2022-08-14T13:35:08;2.97;;;2.70;;
37777;SDS011;23615;51.506;7.678;2022-08-14T13:37:35;2.83;;;2.60;;
37777;SDS011;23615;51.506;7.678;2022-08-14T13:40:02;6.78;;;3.08;;
37777;SDS011;23615;51.506;7.678;2022-08-14T13:42:29;3.15;;;2.95;;
37777;SDS011;23615;51.506;7.678;2022-08-14T13:44:55;1.90;;;1.80;;
37777;SDS011;23615;51.506;7.678;2022-08-14T13:47:23;2.13;;;2.03;;
37777;SDS011;23615;51.506;7.678;2022-08-14T13:49:53;2.03;;;1.92;;
37777;SDS011;23615;51.506;7.678;2022-08-14T13:52:20;2.53;;;2.33;;
37777;SDS011;23615;51.506;7.678;2022-08-14T13:54:46;2.08;;;1.98;;
37777;SDS011;23615;51.506;7.678;2022-08-14T13:57:18;2.15;;;1.95;;
37777;SDS011;23615;51.506;7.678;2022-08-14T13:59:44;2.33;;;1.80;;
37777;SDS011;23615;51.506;7.678;2022-08-14T14:02:11;2.17;;;2.05;;
37777;SDS011;23615;51.506;7.678;2022-08-14T14:04:39;2.45;;;2.20;;
37777;SDS011;23615;51.506;7.678;2022-08-14T14:07:07;2.20;;;2.10;;
37777;SDS011;23615;51.506;7.678;2022-08-14T14:09:35;2.25;;;2.15;;
37777;SDS011;23615;51.506;7.678;2022-08-14T14:12:04;2.17;;;1.90;;
37777;SDS011;23615;51.506;7.678;2022-08-14T14:14:32;2.13;;;2.03;;
37777;SDS011;23615;51.506;7.678;2022-08-14T14:17:00;2.35;;;2.22;;
37777;SDS011;23615;51.506;7.678;2022-08-14T14:19:25;1.83;;;1.73;;
37777;SDS011;23615;51.506;7.678;2022-08-14T14:21:54;2.42;;;2.10;;
37777;SDS011;23615;51.506;7.678;2022-08-14T14:24:20;2.97;;;2.38;;
37777;SDS011;23615;51.506;7.678;2022-08-14T14:26:46;2.30;;;2.10;;
37777;SDS011;23615;51.506;7.678;2022-08-14T14:29:13;2.40;;;2.20;;
37777;SDS011;23615;51.506;7.678;2022-08-14T14:31:39;2.03;;;1.75;;
37777;SDS011;23615;51.506;7.678;2022-08-14T14:34:05;2.08;;;1.92;;
37777;SDS011;23615;51.506;7.678;2022-08-14T14:36:32;3.08;;;2.63;;
37777;SDS011;23615;51.506;7.678;2022-08-14T14:38:59;2.85;;;2.65;;
37777;SDS011;23615;51.506;7.678;2022-08-14T14:41:27;2.88;;;2.67;;
37777;SDS011;23615;51.506;7.678;2022-08-14T14:43:56;2.38;;;2.10;;
37777;SDS011;23615;51.506;7.678;2022-08-14T14:46:23;2.20;;;2.00;;
37777;SDS011;23615;51.506;7.678;2022-08-14T14:48:50;2.00;;;1.90;;
37777;SDS011;23615;51.506;7.678;2022-08-14T14:51:17;1.88;;;1.77;;
37777;SDS011;23615;51.506;7.678;2022-08-14T14:53:43;2.20;;;2.10;;
37777;SDS011;23615;51.506;7.678;2022-08-14T14:56:10;2.08;;;1.98;;
37777;SDS011;23615;51.506;7.678;2022-08-14T14:58:37;1.88;;;1.77;;
37777;SDS011;23615;51.506;7.678;2022-08-14T15:01:05;2.17;;;1.60;;
37777;SDS011;23615;51.506;7.678;2022-08-14T15:03:35;2.03;;;1.92;;
37777;SDS011;23615;51.506;7.678;2022-08-14T15:06:02;1.63;;;1.52;;
37777;SDS011;23615;51.506;7.678;2022-08-14T15:08:28;2.10;;;1.90;;
37777;SDS011;23615;51.506;7.678;2022-08-14T15:10:55;2.47;;;2.28;;